createdAt,value
2023-03-19T00:00:45.151Z,92.74
2023-03-19T00:01:46.635Z,92.80
2023-03-19T00:02:44.440Z,92.92
2023-03-19T00:03:45.212Z,93.11
2023-03-19T00:04:45.119Z,93.11
2023-03-19T00:05:45.084Z,93.19
2023-03-19T00:06:45.093Z,93.13
2023-03-19T00:07:45.050Z,93.14
2023-03-19T00:08:45.057Z,93.14
2023-03-19T00:09:45.032Z,93.36
2023-03-19T00:10:45.039Z,93.51
2023-03-19T00:11:45.012Z,93.62
2023-03-19T00:12:45.757Z,93.79
2023-03-19T00:13:44.998Z,93.86
2023-03-19T00:14:44.981Z,93.87
2023-03-19T00:15:44.967Z,93.79
2023-03-19T00:16:44.984Z,93.80
2023-03-19T00:17:44.908Z,93.96
2023-03-19T00:18:44.930Z,94.30
2023-03-19T00:19:44.912Z,94.61
2023-03-19T00:20:44.904Z,94.69
2023-03-19T00:21:44.883Z,94.78
2023-03-19T00:22:44.845Z,94.83
2023-03-19T00:23:44.850Z,95.05
2023-03-19T00:24:44.842Z,95.07
2023-03-19T00:25:44.837Z,94.94
2023-03-19T00:26:44.516Z,94.78
2023-03-19T00:27:44.562Z,94.92
2023-03-19T00:28:44.794Z,95.35
2023-03-19T00:29:45.494Z,95.59
2023-03-19T00:30:44.544Z,95.48
2023-03-19T00:31:44.508Z,95.35
2023-03-19T00:32:44.530Z,95.33
2023-03-19T00:33:44.502Z,95.44
2023-03-19T00:34:44.540Z,95.52
2023-03-19T00:35:44.014Z,95.47
2023-03-19T00:36:44.670Z,95.45
2023-03-19T00:37:44.008Z,95.63
2023-03-19T00:38:44.655Z,95.75
2023-03-19T00:39:44.649Z,95.88
2023-03-19T00:40:45.338Z,96.06
2023-03-19T00:41:44.613Z,96.09
2023-03-19T00:42:43.890Z,96.16
2023-03-19T00:43:44.210Z,96.33
2023-03-19T00:44:44.577Z,96.57
2023-03-19T00:45:43.981Z,96.92
2023-03-19T00:46:44.306Z,97.10
2023-03-19T00:47:44.507Z,97.27
2023-03-19T00:48:44.517Z,97.32
2023-03-19T00:49:44.505Z,97.35
2023-03-19T00:50:44.488Z,97.55
2023-03-19T00:51:44.475Z,97.79
2023-03-19T00:52:45.199Z,97.83
2023-03-19T00:53:45.170Z,97.82
2023-03-19T00:54:45.146Z,97.88
2023-03-19T00:55:45.144Z,97.94
2023-03-19T00:56:44.423Z,98.10
2023-03-19T00:57:44.376Z,98.37
2023-03-19T00:58:45.106Z,98.53
2023-03-19T00:59:44.360Z,98.62
2023-03-19T01:00:44.356Z,98.60
2023-03-19T01:01:45.089Z,98.61
2023-03-19T01:02:45.053Z,98.49
2023-03-19T01:03:44.319Z,98.54
2023-03-19T01:04:44.446Z,98.58
2023-03-19T01:05:44.287Z,98.60
2023-03-19T01:06:43.545Z,98.57
2023-03-19T01:07:44.242Z,98.56
2023-03-19T01:08:44.249Z,98.47
2023-03-19T01:09:44.229Z,98.41
2023-03-19T01:10:44.205Z,98.44
2023-03-19T01:11:44.215Z,98.38
2023-03-19T01:12:43.565Z,98.31
2023-03-19T01:13:44.148Z,98.30
2023-03-19T01:14:44.864Z,98.33
2023-03-19T01:15:44.141Z,98.36
2023-03-19T01:16:44.129Z,98.44
2023-03-19T01:17:44.111Z,98.61
2023-03-19T01:18:44.087Z,98.77
2023-03-19T01:19:44.309Z,98.80
2023-03-19T01:20:44.099Z,98.85
2023-03-19T01:21:44.068Z,98.86
2023-03-19T01:22:44.049Z,98.90
2023-03-19T01:23:44.014Z,98.94
2023-03-19T01:24:44.017Z,99.04
2023-03-19T01:25:44.013Z,99.07
2023-03-19T01:26:43.998Z,99.11
2023-03-19T01:27:44.006Z,99.20
2023-03-19T01:28:43.935Z,99.35
2023-03-19T01:29:43.978Z,99.42
2023-03-19T01:30:43.224Z,99.45
2023-03-19T01:31:43.946Z,99.53
2023-03-19T01:32:43.931Z,99.60
2023-03-19T01:33:43.873Z,99.64
2023-03-19T01:34:43.893Z,99.64
2023-03-19T01:35:43.926Z,99.71
2023-03-19T01:36:43.860Z,99.84
2023-03-19T01:37:43.615Z,99.96
2023-03-19T01:38:43.577Z,100.00
2023-03-19T01:39:43.569Z,100.00
2023-03-19T01:40:43.584Z,100.00
2023-03-19T01:41:43.572Z,100.00
2023-03-19T01:42:43.792Z,100.00
2023-03-19T01:43:43.739Z,100.00
2023-03-19T01:44:43.749Z,100.00
2023-03-19T01:45:43.731Z,100.00
2023-03-19T01:46:43.096Z,100.00
2023-03-19T01:47:43.595Z,100.00
2023-03-19T01:48:43.738Z,100.00
2023-03-19T01:49:43.576Z,100.00
2023-03-19T01:50:43.669Z,100.00
2023-03-19T01:51:43.672Z,100.00
2023-03-19T01:52:43.644Z,100.00
2023-03-19T01:53:43.205Z,100.00
2023-03-19T01:54:43.594Z,100.00
2023-03-19T01:55:43.585Z,100.00
2023-03-19T01:56:44.304Z,100.00
2023-03-19T01:57:43.590Z,100.00
2023-03-19T01:58:44.295Z,100.00
2023-03-19T01:59:43.561Z,100.00
2023-03-19T02:00:43.549Z,100.00
2023-03-19T02:01:43.574Z,100.00
2023-03-19T02:02:43.511Z,100.00
2023-03-19T02:03:43.481Z,100.00
2023-03-19T02:04:43.509Z,100.00
2023-03-19T02:05:43.466Z,100.00
2023-03-19T02:06:43.472Z,100.00
2023-03-19T02:07:43.438Z,100.00
2023-03-19T02:08:43.403Z,100.00
2023-03-19T02:09:43.189Z,100.00
2023-03-19T02:10:43.400Z,100.00
2023-03-19T02:11:43.376Z,100.00
2023-03-19T02:12:43.402Z,100.00
2023-03-19T02:13:43.334Z,100.00
2023-03-19T02:14:43.350Z,100.00
2023-03-19T02:15:43.398Z,100.00
2023-03-19T02:16:43.322Z,100.00
2023-03-19T02:17:43.304Z,100.00
2023-03-19T02:18:43.288Z,100.00
2023-03-19T02:19:43.291Z,100.00
2023-03-19T02:20:43.258Z,100.00
2023-03-19T02:21:43.250Z,100.00
2023-03-19T02:22:43.241Z,100.00
2023-03-19T02:23:43.209Z,100.00
2023-03-19T02:24:43.220Z,100.00
2023-03-19T02:25:43.192Z,100.00
2023-03-19T02:26:43.196Z,100.00
2023-03-19T02:27:43.169Z,100.00
2023-03-19T02:28:43.141Z,100.00
2023-03-19T02:29:43.142Z,100.00
2023-03-19T02:30:43.128Z,100.00
2023-03-19T02:31:43.173Z,100.00
2023-03-19T02:32:43.152Z,100.00
2023-03-19T02:33:43.068Z,100.00
2023-03-19T02:34:42.367Z,100.00
2023-03-19T02:35:43.131Z,100.00
2023-03-19T02:36:43.047Z,100.00
2023-03-19T02:37:43.041Z,100.00
2023-03-19T02:38:42.997Z,100.00
2023-03-19T02:39:42.999Z,100.00
2023-03-19T02:40:42.986Z,100.00
2023-03-19T02:41:42.981Z,100.00
2023-03-19T02:42:42.253Z,100.00
2023-03-19T02:43:42.935Z,100.00
2023-03-19T02:44:43.663Z,100.00
2023-03-19T02:45:42.927Z,100.00
2023-03-19T02:46:42.929Z,100.00
2023-03-19T02:47:42.898Z,100.00
2023-03-19T02:48:42.860Z,100.00
2023-03-19T02:49:42.876Z,100.00
2023-03-19T02:50:42.140Z,100.00
2023-03-19T02:51:42.596Z,100.00
2023-03-19T02:52:42.600Z,100.00
2023-03-19T02:53:42.794Z,100.00
2023-03-19T02:54:42.804Z,100.00
2023-03-19T02:55:42.802Z,100.00
2023-03-19T02:56:42.781Z,100.00
2023-03-19T02:57:42.759Z,100.00
2023-03-19T02:58:42.623Z,100.00
2023-03-19T02:59:42.755Z,100.00
2023-03-19T03:00:42.767Z,100.00
2023-03-19T03:01:42.765Z,100.00
2023-03-19T03:02:42.693Z,100.00
2023-03-19T03:03:42.733Z,100.00
2023-03-19T03:04:42.637Z,100.00
2023-03-19T03:05:42.656Z,100.00
2023-03-19T03:06:42.248Z,100.00
2023-03-19T03:07:43.337Z,100.00
2023-03-19T03:08:42.619Z,100.00
2023-03-19T03:09:42.614Z,100.00
2023-03-19T03:10:43.306Z,100.00
2023-03-19T03:11:43.300Z,100.00
2023-03-19T03:12:43.275Z,100.00
2023-03-19T03:13:43.278Z,100.00
2023-03-19T03:14:43.287Z,100.00
2023-03-19T03:15:43.235Z,100.00
2023-03-19T03:16:43.294Z,100.00
2023-03-19T03:17:43.216Z,100.00
2023-03-19T03:18:42.484Z,100.00
2023-03-19T03:19:42.448Z,100.00
2023-03-19T03:20:42.470Z,100.00
2023-03-19T03:21:42.444Z,100.00
2023-03-19T03:22:42.449Z,100.00
2023-03-19T03:23:42.413Z,100.00
2023-03-19T03:24:42.388Z,100.00
2023-03-19T03:25:42.389Z,100.00
2023-03-19T03:26:42.377Z,100.00
2023-03-19T03:27:42.375Z,100.00
2023-03-19T03:28:42.355Z,100.00
2023-03-19T03:29:42.311Z,100.00
2023-03-19T03:30:42.319Z,100.00
2023-03-19T03:31:42.406Z,100.00
2023-03-19T03:32:42.327Z,100.00
2023-03-19T03:33:42.275Z,100.00
2023-03-19T03:34:42.241Z,100.00
2023-03-19T03:35:42.252Z,100.00
2023-03-19T03:36:42.249Z,100.00
2023-03-19T03:37:42.228Z,100.00
2023-03-19T03:38:42.197Z,100.00
2023-03-19T03:39:42.182Z,100.00
2023-03-19T03:40:42.194Z,100.00
2023-03-19T03:41:42.186Z,100.00
2023-03-19T03:42:42.164Z,100.00
2023-03-19T03:43:42.147Z,100.00
2023-03-19T03:44:42.109Z,100.00
2023-03-19T03:45:42.149Z,100.00
2023-03-19T03:46:42.118Z,100.00
2023-03-19T03:47:42.107Z,100.00
2023-03-19T03:48:42.075Z,100.00
2023-03-19T03:49:42.046Z,100.00
2023-03-19T03:50:42.051Z,100.00
2023-03-19T03:51:42.048Z,100.00
2023-03-19T03:52:42.064Z,100.00
2023-03-19T03:53:42.005Z,100.00
2023-03-19T03:54:41.983Z,100.00
2023-03-19T03:55:42.001Z,100.00
2023-03-19T03:56:41.972Z,100.00
2023-03-19T03:57:41.683Z,100.00
2023-03-19T03:58:41.943Z,100.00
2023-03-19T03:59:41.902Z,100.00
2023-03-19T04:00:41.911Z,100.00
2023-03-19T04:01:41.694Z,100.00
2023-03-19T04:02:41.968Z,100.00
2023-03-19T04:03:41.882Z,100.00
2023-03-19T04:04:41.841Z,100.00
2023-03-19T04:05:41.860Z,100.00
2023-03-19T04:06:41.848Z,100.00
2023-03-19T04:07:41.829Z,100.00
2023-03-19T04:08:41.211Z,100.00
2023-03-19T04:09:41.398Z,100.00
2023-03-19T04:10:41.784Z,100.00
2023-03-19T04:11:41.785Z,100.00
2023-03-19T04:12:41.548Z,100.00
2023-03-19T04:13:41.748Z,100.00
2023-03-19T04:14:41.722Z,100.00
2023-03-19T04:15:41.726Z,100.00
2023-03-19T04:16:41.729Z,100.00
2023-03-19T04:17:42.416Z,100.00
2023-03-19T04:18:41.711Z,100.00
2023-03-19T04:19:42.394Z,100.00
2023-03-19T04:20:42.370Z,100.00
2023-03-19T04:21:42.367Z,100.00
2023-03-19T04:22:42.353Z,100.00
2023-03-19T04:23:42.342Z,100.00
2023-03-19T04:24:42.350Z,100.00
2023-03-19T04:25:42.300Z,100.00
2023-03-19T04:26:42.300Z,100.00
2023-03-19T04:27:42.296Z,100.00
2023-03-19T04:28:42.263Z,100.00
2023-03-19T04:29:42.269Z,100.00
2023-03-19T04:30:42.572Z,100.00
2023-03-19T04:31:42.233Z,100.00
2023-03-19T04:32:41.547Z,100.00
2023-03-19T04:33:41.507Z,100.00
2023-03-19T04:34:41.475Z,100.00
2023-03-19T04:35:41.501Z,100.00
2023-03-19T04:36:41.448Z,100.00
2023-03-19T04:37:41.429Z,100.00
2023-03-19T04:38:41.424Z,100.00
2023-03-19T04:39:41.378Z,100.00
2023-03-19T04:40:41.376Z,100.00
2023-03-19T04:41:41.368Z,100.00
2023-03-19T04:42:41.354Z,100.00
2023-03-19T04:43:41.347Z,100.00
2023-03-19T04:44:41.305Z,100.00
2023-03-19T04:45:41.314Z,100.00
2023-03-19T04:46:41.305Z,100.00
2023-03-19T04:47:42.020Z,100.00
2023-03-19T04:48:41.287Z,100.00
2023-03-19T04:49:41.240Z,100.00
2023-03-19T04:50:41.249Z,100.00
2023-03-19T04:51:41.248Z,100.00
2023-03-19T04:52:41.221Z,99.97
2023-03-19T04:53:41.212Z,99.93
2023-03-19T04:54:41.186Z,99.91
2023-03-19T04:55:41.198Z,99.86
2023-03-19T04:56:41.172Z,99.83
2023-03-19T04:57:40.716Z,99.83
2023-03-19T04:58:41.151Z,99.83
2023-03-19T04:59:41.115Z,99.82
2023-03-19T05:00:41.124Z,99.83
2023-03-19T05:01:41.121Z,99.88
2023-03-19T05:02:41.090Z,99.97
2023-03-19T05:03:41.105Z,100.00
2023-03-19T05:04:41.057Z,100.00
2023-03-19T05:05:41.053Z,100.00
2023-03-19T05:06:41.038Z,100.00
2023-03-19T05:07:41.036Z,100.00
2023-03-19T05:08:41.027Z,100.00
2023-03-19T05:09:40.972Z,100.00
2023-03-19T05:10:40.731Z,100.00
2023-03-19T05:11:40.722Z,100.00
2023-03-19T05:12:40.737Z,100.00
2023-03-19T05:13:40.292Z,100.00
2023-03-19T05:14:40.731Z,100.00
2023-03-19T05:15:41.639Z,100.00
2023-03-19T05:16:40.736Z,100.00
2023-03-19T05:17:40.880Z,100.00
2023-03-19T05:18:41.454Z,100.00
2023-03-19T05:19:40.738Z,99.97
2023-03-19T05:20:40.837Z,99.95
2023-03-19T05:21:40.089Z,99.94
2023-03-19T05:22:40.085Z,99.97
2023-03-19T05:23:40.824Z,100.00
2023-03-19T05:24:40.779Z,100.00
2023-03-19T05:25:40.826Z,100.00
2023-03-19T05:26:40.764Z,100.00
2023-03-19T05:27:40.757Z,100.00
2023-03-19T05:28:40.737Z,100.00
2023-03-19T05:29:40.991Z,100.00
2023-03-19T05:30:40.086Z,99.95
2023-03-19T05:31:40.683Z,99.90
2023-03-19T05:32:40.898Z,99.86
2023-03-19T05:33:40.684Z,99.82
2023-03-19T05:34:40.666Z,99.78
2023-03-19T05:35:40.664Z,99.81
2023-03-19T05:36:40.632Z,99.85
2023-03-19T05:37:40.090Z,99.91
2023-03-19T05:38:40.602Z,99.94
2023-03-19T05:39:40.596Z,99.93
2023-03-19T05:40:40.557Z,99.93
2023-03-19T05:41:41.276Z,99.91
2023-03-19T05:42:40.546Z,99.91
2023-03-19T05:43:40.536Z,99.95
2023-03-19T05:44:40.519Z,100.00
2023-03-19T05:45:40.490Z,100.00
2023-03-19T05:46:40.606Z,100.00
2023-03-19T05:47:40.492Z,100.00
2023-03-19T05:48:40.474Z,100.00
2023-03-19T05:49:40.456Z,100.00
2023-03-19T05:50:40.437Z,100.00
2023-03-19T05:51:40.434Z,100.00
2023-03-19T05:52:40.434Z,100.00
2023-03-19T05:53:40.407Z,100.00
2023-03-19T05:54:40.390Z,100.00
2023-03-19T05:55:40.353Z,100.00
2023-03-19T05:56:40.358Z,100.00
2023-03-19T05:57:40.363Z,100.00
2023-03-19T05:58:40.337Z,100.00
2023-03-19T05:59:40.384Z,100.00
2023-03-19T06:00:40.278Z,100.00
2023-03-19T06:01:39.864Z,100.00
2023-03-19T06:02:40.303Z,100.00
2023-03-19T06:03:40.298Z,100.00
2023-03-19T06:04:40.246Z,100.00
2023-03-19T06:05:40.221Z,100.00
2023-03-19T06:06:40.223Z,100.00
2023-03-19T06:07:40.218Z,100.00
2023-03-19T06:08:40.214Z,100.00
2023-03-19T06:09:40.199Z,100.00
2023-03-19T06:10:40.150Z,100.00
2023-03-19T06:11:40.160Z,100.00
2023-03-19T06:12:40.141Z,100.00
2023-03-19T06:13:40.132Z,100.00
2023-03-19T06:14:40.120Z,100.00
2023-03-19T06:15:40.084Z,100.00
2023-03-19T06:16:40.100Z,100.00
2023-03-19T06:17:39.351Z,100.00
2023-03-19T06:18:40.089Z,99.98
2023-03-19T06:19:39.800Z,99.92
2023-03-19T06:20:39.794Z,99.84
2023-03-19T06:21:39.796Z,99.77
2023-03-19T06:22:40.016Z,99.68
2023-03-19T06:23:40.000Z,99.63
2023-03-19T06:24:39.971Z,99.59
2023-03-19T06:25:39.816Z,99.54
2023-03-19T06:26:39.787Z,99.47
2023-03-19T06:27:39.927Z,99.46
2023-03-19T06:28:39.795Z,99.39
2023-03-19T06:29:39.913Z,99.36
2023-03-19T06:30:39.869Z,99.29
2023-03-19T06:31:39.878Z,99.23
2023-03-19T06:32:39.885Z,99.10
2023-03-19T06:33:39.639Z,98.92
2023-03-19T06:34:39.817Z,98.71
2023-03-19T06:35:40.594Z,98.46
2023-03-19T06:36:39.808Z,98.22
2023-03-19T06:37:39.822Z,98.08
2023-03-19T06:38:40.511Z,97.93
2023-03-19T06:39:40.506Z,97.78
2023-03-19T06:40:40.494Z,97.66
2023-03-19T06:41:39.771Z,97.61
2023-03-19T06:42:39.782Z,97.58
2023-03-19T06:43:40.438Z,97.63
2023-03-19T06:44:40.424Z,97.66
2023-03-19T06:45:40.527Z,97.66
2023-03-19T06:46:40.409Z,97.57
2023-03-19T06:47:39.669Z,97.49
2023-03-19T06:48:39.674Z,97.30
2023-03-19T06:49:39.635Z,97.20
2023-03-19T06:50:40.372Z,96.99
2023-03-19T06:51:39.624Z,96.76
2023-03-19T06:52:39.608Z,96.53
2023-03-19T06:53:39.593Z,96.27
2023-03-19T06:54:39.576Z,96.18
2023-03-19T06:55:39.788Z,95.99
2023-03-19T06:56:39.566Z,95.57
2023-03-19T06:57:38.804Z,94.56
2023-03-19T06:58:39.535Z,94.00
2023-03-19T06:59:39.501Z,93.40
2023-03-19T07:00:39.503Z,93.07
2023-03-19T07:01:39.481Z,92.73
2023-03-19T07:02:39.451Z,92.38
2023-03-19T07:03:39.460Z,92.69
2023-03-19T07:04:39.452Z,92.89
2023-03-19T07:05:39.407Z,92.87
2023-03-19T07:06:39.617Z,93.14
2023-03-19T07:07:39.407Z,93.28
2023-03-19T07:08:39.387Z,93.39
2023-03-19T07:09:39.389Z,93.60
2023-03-19T07:10:39.329Z,93.75
2023-03-19T07:11:39.350Z,93.78
2023-03-19T07:12:39.331Z,93.68
2023-03-19T07:13:39.326Z,93.71
2023-03-19T07:14:39.314Z,93.54
2023-03-19T07:15:39.270Z,93.16
2023-03-19T07:16:39.279Z,92.79
2023-03-19T07:17:39.992Z,92.75
2023-03-19T07:18:39.258Z,92.85
2023-03-19T07:19:39.232Z,92.88
2023-03-19T07:20:39.200Z,92.88
2023-03-19T07:21:38.488Z,92.72
2023-03-19T07:22:38.830Z,92.69
2023-03-19T07:23:39.193Z,92.80
2023-03-19T07:24:39.171Z,93.13
2023-03-19T07:25:39.132Z,92.93
2023-03-19T07:26:39.140Z,92.79
2023-03-19T07:27:38.479Z,92.50
2023-03-19T07:28:39.124Z,91.67
2023-03-19T07:29:38.359Z,91.33
2023-03-19T07:30:38.438Z,91.57
2023-03-19T07:31:39.095Z,91.81
2023-03-19T07:32:38.870Z,91.84
2023-03-19T07:33:39.037Z,91.78
2023-03-19T07:34:39.036Z,91.02
2023-03-19T07:35:38.348Z,91.57
2023-03-19T07:36:39.004Z,88.67
2023-03-19T07:37:38.293Z,86.53
2023-03-19T07:38:38.425Z,84.24
2023-03-19T07:39:38.965Z,83.62
2023-03-19T07:40:40.033Z,82.50
2023-03-19T07:41:38.941Z,81.91
2023-03-19T07:42:38.939Z,81.70
2023-03-19T07:43:38.569Z,82.26
2023-03-19T07:44:38.894Z,81.48
2023-03-19T07:45:38.173Z,80.86
2023-03-19T07:46:38.663Z,79.99
2023-03-19T07:47:38.855Z,79.26
2023-03-19T07:48:38.703Z,78.67
2023-03-19T07:49:38.818Z,78.54
2023-03-19T07:50:39.559Z,78.45
2023-03-19T07:51:39.508Z,78.24
2023-03-19T07:52:38.777Z,77.88
2023-03-19T07:53:39.486Z,78.28
2023-03-19T07:54:39.466Z,78.35
2023-03-19T07:55:39.479Z,77.74
2023-03-19T07:56:39.446Z,77.51
2023-03-19T07:57:39.440Z,78.07
2023-03-19T07:58:39.425Z,77.87
2023-03-19T07:59:39.399Z,76.79
2023-03-19T08:00:39.383Z,75.86
2023-03-19T08:01:39.377Z,75.25
2023-03-19T08:02:39.400Z,75.10
2023-03-19T08:03:38.625Z,75.13
2023-03-19T08:04:38.683Z,75.75
2023-03-19T08:05:38.603Z,75.17
2023-03-19T08:06:38.575Z,74.52
2023-03-19T08:07:38.590Z,74.67
2023-03-19T08:08:38.569Z,74.48
2023-03-19T08:09:38.540Z,74.29
2023-03-19T08:10:39.145Z,74.14
2023-03-19T08:11:38.498Z,73.72
2023-03-19T08:12:37.880Z,73.16
2023-03-19T08:13:38.512Z,73.10
2023-03-19T08:14:38.470Z,72.49
2023-03-19T08:15:38.469Z,72.08
2023-03-19T08:16:38.453Z,71.52
2023-03-19T08:17:38.474Z,71.86
2023-03-19T08:18:38.428Z,71.77
2023-03-19T08:19:38.414Z,72.11
2023-03-19T08:20:38.408Z,71.74
2023-03-19T08:21:38.385Z,71.54
2023-03-19T08:22:38.366Z,70.98
2023-03-19T08:23:38.345Z,71.29
2023-03-19T08:24:38.345Z,71.20
2023-03-19T08:25:37.595Z,71.57
2023-03-19T08:26:38.307Z,70.76
2023-03-19T08:27:38.327Z,70.18
2023-03-19T08:28:38.297Z,69.64
2023-03-19T08:29:38.282Z,67.79
2023-03-19T08:30:38.561Z,68.34
2023-03-19T08:31:38.229Z,67.42
2023-03-19T08:32:38.264Z,67.32
2023-03-19T08:33:38.226Z,66.51
2023-03-19T08:34:38.211Z,66.26
2023-03-19T08:35:38.237Z,66.89
2023-03-19T08:36:38.165Z,66.43
2023-03-19T08:37:38.170Z,66.48
2023-03-19T08:38:37.900Z,65.72
2023-03-19T08:39:37.481Z,67.25
2023-03-19T08:40:37.912Z,67.09
2023-03-19T08:41:37.391Z,68.63
2023-03-19T08:42:38.100Z,69.13
2023-03-19T08:43:38.124Z,69.22
2023-03-19T08:44:37.908Z,68.71
2023-03-19T08:45:38.070Z,69.15
2023-03-19T08:46:38.073Z,68.83
2023-03-19T08:47:38.032Z,69.01
2023-03-19T08:48:39.608Z,69.37
2023-03-19T08:49:37.899Z,69.23
2023-03-19T08:50:38.187Z,69.64
2023-03-19T08:51:37.959Z,69.79
2023-03-19T08:52:37.911Z,70.05
2023-03-19T08:53:37.983Z,70.66
2023-03-19T08:54:37.966Z,71.20
2023-03-19T08:55:37.930Z,71.50
2023-03-19T08:56:37.906Z,72.03
2023-03-19T08:57:37.905Z,72.46
2023-03-19T08:58:38.585Z,73.06
2023-03-19T08:59:37.651Z,74.09
2023-03-19T09:00:37.875Z,73.72
2023-03-19T09:01:38.577Z,73.88
2023-03-19T09:02:38.533Z,74.25
2023-03-19T09:03:38.535Z,74.79
2023-03-19T09:04:38.555Z,76.19
2023-03-19T09:05:38.507Z,76.36
2023-03-19T09:06:38.492Z,76.13
2023-03-19T09:07:37.771Z,77.15
2023-03-19T09:08:37.749Z,77.75
2023-03-19T09:09:37.722Z,78.32
2023-03-19T09:10:37.721Z,78.60
2023-03-19T09:11:37.751Z,79.29
2023-03-19T09:12:38.410Z,79.90
2023-03-19T09:13:37.672Z,80.22
2023-03-19T09:14:37.669Z,81.62
2023-03-19T09:15:37.708Z,81.71
2023-03-19T09:16:37.607Z,82.01
2023-03-19T09:17:37.625Z,82.09
2023-03-19T09:18:37.626Z,81.80
2023-03-19T09:19:37.599Z,81.20
2023-03-19T09:20:37.579Z,81.07
2023-03-19T09:21:37.549Z,80.56
2023-03-19T09:22:37.558Z,79.95
2023-03-19T09:23:37.536Z,79.39
2023-03-19T09:24:40.392Z,78.72
2023-03-19T09:25:37.524Z,78.26
2023-03-19T09:26:37.482Z,77.36
2023-03-19T09:27:37.486Z,77.30
2023-03-19T09:28:37.485Z,77.84
2023-03-19T09:29:37.446Z,78.79
2023-03-19T09:30:37.443Z,78.47
2023-03-19T09:31:37.458Z,77.87
2023-03-19T09:32:37.456Z,78.31
2023-03-19T09:33:37.402Z,77.41
2023-03-19T09:34:37.386Z,77.52
2023-03-19T09:35:37.533Z,77.24
2023-03-19T09:36:37.365Z,77.52
2023-03-19T09:37:37.359Z,77.59
2023-03-19T09:38:37.345Z,77.63
2023-03-19T09:39:37.080Z,76.88
2023-03-19T09:40:37.304Z,77.02
2023-03-19T09:41:37.260Z,76.97
2023-03-19T09:42:37.291Z,77.26
2023-03-19T09:43:37.282Z,77.79
2023-03-19T09:44:37.054Z,78.47
2023-03-19T09:45:37.059Z,79.06
2023-03-19T09:46:37.254Z,78.53
2023-03-19T09:47:36.971Z,77.56
2023-03-19T09:48:37.204Z,79.25
2023-03-19T09:49:36.941Z,78.92
2023-03-19T09:50:36.961Z,78.32
2023-03-19T09:51:37.161Z,77.97
2023-03-19T09:52:36.441Z,78.06
2023-03-19T09:53:37.127Z,78.75
2023-03-19T09:54:37.121Z,78.66
2023-03-19T09:55:37.403Z,79.05
2023-03-19T09:56:37.089Z,78.90
2023-03-19T09:57:37.050Z,78.41
2023-03-19T09:58:36.614Z,79.05
2023-03-19T09:59:37.064Z,78.91
2023-03-19T10:00:36.352Z,79.34
2023-03-19T10:01:37.087Z,79.40
2023-03-19T10:02:37.735Z,79.31
2023-03-19T10:03:36.786Z,79.21
2023-03-19T10:04:36.989Z,80.04
2023-03-19T10:05:37.101Z,79.60
2023-03-19T10:06:36.889Z,79.81
2023-03-19T10:07:36.913Z,79.56
2023-03-19T10:08:36.928Z,80.76
2023-03-19T10:09:37.632Z,80.08
2023-03-19T10:10:37.608Z,80.63
2023-03-19T10:11:36.880Z,80.93
2023-03-19T10:12:37.603Z,81.31
2023-03-19T10:13:36.850Z,81.67
2023-03-19T10:14:36.868Z,82.18
2023-03-19T10:15:37.759Z,83.45
2023-03-19T10:16:37.609Z,84.03
2023-03-19T10:17:37.542Z,84.64
2023-03-19T10:18:36.798Z,86.24
2023-03-19T10:19:40.337Z,87.22
2023-03-19T10:20:37.476Z,88.04
2023-03-19T10:21:36.754Z,88.20
2023-03-19T10:22:36.716Z,88.62
2023-03-19T10:23:36.720Z,89.72
2023-03-19T10:24:36.721Z,90.14
2023-03-19T10:25:38.490Z,90.20
2023-03-19T10:26:37.413Z,90.77
2023-03-19T10:27:36.643Z,90.61
2023-03-19T10:28:36.656Z,91.32
2023-03-19T10:29:36.643Z,91.46
2023-03-19T10:30:36.623Z,92.11
2023-03-19T10:31:36.814Z,92.85
2023-03-19T10:32:36.628Z,93.00
2023-03-19T10:33:36.582Z,92.35
2023-03-19T10:34:36.599Z,92.61
2023-03-19T10:35:36.928Z,93.34
2023-03-19T10:36:36.533Z,93.73
2023-03-19T10:37:36.503Z,94.08
2023-03-19T10:38:37.231Z,94.42
2023-03-19T10:39:36.491Z,94.35
2023-03-19T10:40:36.493Z,94.04
2023-03-19T10:41:36.471Z,94.13
2023-03-19T10:42:36.425Z,93.91
2023-03-19T10:43:36.445Z,93.39
2023-03-19T10:44:36.450Z,93.81
2023-03-19T10:45:38.662Z,94.04
2023-03-19T10:46:36.407Z,94.25
2023-03-19T10:47:36.363Z,94.63
2023-03-19T10:48:36.377Z,94.38
2023-03-19T10:49:36.349Z,93.84
2023-03-19T10:50:36.371Z,93.72
2023-03-19T10:51:36.335Z,94.47
2023-03-19T10:52:36.302Z,94.88
2023-03-19T10:53:36.322Z,95.37
2023-03-19T10:54:36.287Z,95.67
2023-03-19T10:55:36.673Z,95.87
2023-03-19T10:56:36.068Z,96.07
2023-03-19T10:57:36.007Z,95.36
2023-03-19T10:58:36.017Z,95.49
2023-03-19T10:59:35.998Z,95.61
2023-03-19T11:00:36.227Z,95.72
2023-03-19T11:01:36.193Z,95.90
2023-03-19T11:02:36.015Z,96.28
2023-03-19T11:03:36.043Z,96.36
2023-03-19T11:04:36.011Z,95.93
2023-03-19T11:05:36.174Z,95.41
2023-03-19T11:06:36.120Z,95.53
2023-03-19T11:07:36.012Z,95.58
2023-03-19T11:08:36.254Z,95.61
2023-03-19T11:09:36.085Z,95.93
2023-03-19T11:10:36.100Z,96.22
2023-03-19T11:11:36.008Z,96.39
2023-03-19T11:12:36.010Z,96.62
2023-03-19T11:13:36.040Z,96.92
2023-03-19T11:14:36.038Z,97.12
2023-03-19T11:15:36.925Z,97.07
2023-03-19T11:16:36.806Z,96.86
2023-03-19T11:17:36.713Z,96.58
2023-03-19T11:18:35.285Z,96.83
2023-03-19T11:19:35.945Z,97.14
2023-03-19T11:20:35.550Z,97.17
2023-03-19T11:21:35.929Z,97.05
2023-03-19T11:22:35.911Z,97.04
2023-03-19T11:23:36.622Z,96.84
2023-03-19T11:24:35.893Z,96.96
2023-03-19T11:25:36.245Z,97.01
2023-03-19T11:26:35.865Z,97.52
2023-03-19T11:27:35.836Z,97.79
2023-03-19T11:28:35.807Z,97.79
2023-03-19T11:29:36.053Z,97.93
2023-03-19T11:30:35.801Z,98.06
2023-03-19T11:31:35.802Z,98.12
2023-03-19T11:32:35.846Z,98.22
2023-03-19T11:33:35.738Z,98.39
2023-03-19T11:34:35.739Z,98.62
2023-03-19T11:35:36.062Z,98.73
2023-03-19T11:36:34.981Z,98.63
2023-03-19T11:37:35.707Z,98.44
2023-03-19T11:38:35.660Z,98.13
2023-03-19T11:39:35.678Z,97.79
2023-03-19T11:40:35.656Z,97.99
2023-03-19T11:41:35.641Z,98.15
2023-03-19T11:42:35.651Z,98.27
2023-03-19T11:43:35.646Z,98.24
2023-03-19T11:44:35.619Z,97.91
2023-03-19T11:45:36.018Z,97.88
2023-03-19T11:46:35.910Z,97.81
2023-03-19T11:47:35.568Z,97.66
2023-03-19T11:48:35.535Z,97.44
2023-03-19T11:49:35.545Z,96.92
2023-03-19T11:50:35.541Z,96.04
2023-03-19T11:51:35.517Z,96.03
2023-03-19T11:52:35.496Z,95.91
2023-03-19T11:53:35.732Z,95.35
2023-03-19T11:54:35.472Z,95.40
2023-03-19T11:55:35.804Z,95.59
2023-03-19T11:56:35.445Z,95.15
2023-03-19T11:57:35.440Z,95.51
2023-03-19T11:58:35.048Z,95.43
2023-03-19T11:59:35.404Z,94.41
2023-03-19T12:00:34.664Z,94.42
2023-03-19T12:01:36.270Z,94.31
2023-03-19T12:02:35.433Z,93.48
2023-03-19T12:03:35.638Z,91.60
2023-03-19T12:04:35.345Z,91.89
2023-03-19T12:05:35.592Z,92.17
2023-03-19T12:06:35.066Z,92.67
2023-03-19T12:07:35.054Z,92.90
2023-03-19T12:08:35.054Z,93.98
2023-03-19T12:09:35.052Z,94.18
2023-03-19T12:10:35.566Z,93.27
2023-03-19T12:11:34.512Z,94.17
2023-03-19T12:12:35.238Z,93.42
2023-03-19T12:13:35.201Z,93.03
2023-03-19T12:14:34.592Z,93.36
2023-03-19T12:15:35.531Z,92.56
2023-03-19T12:16:39.019Z,92.55
2023-03-19T12:17:36.159Z,90.50
2023-03-19T12:18:35.130Z,88.23
2023-03-19T12:19:34.741Z,88.34
2023-03-19T12:20:35.341Z,87.59
2023-03-19T12:21:35.105Z,86.60
2023-03-19T12:22:34.859Z,84.12
2023-03-19T12:23:36.098Z,83.12
2023-03-19T12:24:34.888Z,85.42
2023-03-19T12:25:35.220Z,85.44
2023-03-19T12:26:35.777Z,85.29
2023-03-19T12:27:35.047Z,83.61
2023-03-19T12:28:35.750Z,83.54
2023-03-19T12:29:35.728Z,84.43
2023-03-19T12:30:35.713Z,85.63
2023-03-19T12:31:35.786Z,86.31
2023-03-19T12:32:35.710Z,86.57
2023-03-19T12:33:35.666Z,88.50
2023-03-19T12:34:35.658Z,89.51
2023-03-19T12:35:35.255Z,89.21
2023-03-19T12:36:35.639Z,89.07
2023-03-19T12:37:35.634Z,89.70
2023-03-19T12:38:35.590Z,89.94
2023-03-19T12:39:35.586Z,88.14
2023-03-19T12:40:34.833Z,86.43
2023-03-19T12:41:34.821Z,86.51
2023-03-19T12:42:34.822Z,86.15
2023-03-19T12:43:34.075Z,86.34
2023-03-19T12:44:34.767Z,84.21